sensor_id;sensor_type;location;lat;lon;timestamp;temperature;humidity
26254;DHT22;53339;51.378;0.094;2024-03-06T00:00:54;6.30;90.30
26254;DHT22;53339;51.378;0.094;2024-03-06T00:03:25;6.20;90.20
26254;DHT22;53339;51.378;0.094;2024-03-06T00:05:57;6.10;90.20
26254;DHT22;53339;51.378;0.094;2024-03-06T00:08:29;6.10;90.20
26254;DHT22;53339;51.378;0.094;2024-03-06T00:11:03;6.10;90.30
26254;DHT22;53339;51.378;0.094;2024-03-06T00:13:36;6.10;90.40
26254;DHT22;53339;51.378;0.094;2024-03-06T00:16:05;6.10;90.40
26254;DHT22;53339;51.378;0.094;2024-03-06T00:18:39;6.10;90.40
26254;DHT22;53339;51.378;0.094;2024-03-06T00:21:11;6.00;90.40
26254;DHT22;53339;51.378;0.094;2024-03-06T00:23:49;6.00;90.40
26254;DHT22;53339;51.378;0.094;2024-03-06T00:26:23;6.00;90.40
26254;DHT22;53339;51.378;0.094;2024-03-06T00:28:52;6.10;90.50
26254;DHT22;53339;51.378;0.094;2024-03-06T00:31:23;6.10;90.60
26254;DHT22;53339;51.378;0.094;2024-03-06T00:33:53;6.00;90.60
26254;DHT22;53339;51.378;0.094;2024-03-06T00:36:27;6.00;90.60
26254;DHT22;53339;51.378;0.094;2024-03-06T00:39:02;6.00;90.60
26254;DHT22;53339;51.378;0.094;2024-03-06T00:41:37;6.00;90.70
26254;DHT22;53339;51.378;0.094;2024-03-06T00:44:07;6.00;90.60
26254;DHT22;53339;51.378;0.094;2024-03-06T00:46:39;5.90;90.50
26254;DHT22;53339;51.378;0.094;2024-03-06T00:49:09;5.90;90.40
26254;DHT22;53339;51.378;0.094;2024-03-06T00:51:39;5.90;90.30
26254;DHT22;53339;51.378;0.094;2024-03-06T00:54:22;5.70;90.20
26254;DHT22;53339;51.378;0.094;2024-03-06T00:56:52;5.70;90.10
26254;DHT22;53339;51.378;0.094;2024-03-06T00:59:27;5.60;90.10
26254;DHT22;53339;51.378;0.094;2024-03-06T01:01:58;5.60;90.20
26254;DHT22;53339;51.378;0.094;2024-03-06T01:04:33;5.50;90.10
26254;DHT22;53339;51.378;0.094;2024-03-06T01:07:03;5.50;90.10
26254;DHT22;53339;51.378;0.094;2024-03-06T01:09:35;5.50;90.20
26254;DHT22;53339;51.378;0.094;2024-03-06T01:12:06;5.50;90.30
26254;DHT22;53339;51.378;0.094;2024-03-06T01:14:38;5.40;90.30
26254;DHT22;53339;51.378;0.094;2024-03-06T01:17:15;5.40;90.40
26254;DHT22;53339;51.378;0.094;2024-03-06T01:19:46;5.40;90.50
26254;DHT22;53339;51.378;0.094;2024-03-06T01:22:15;5.50;90.60
26254;DHT22;53339;51.378;0.094;2024-03-06T01:24:45;5.50;90.60
26254;DHT22;53339;51.378;0.094;2024-03-06T01:27:18;5.40;90.60
26254;DHT22;53339;51.378;0.094;2024-03-06T01:29:49;5.40;90.50
26254;DHT22;53339;51.378;0.094;2024-03-06T01:32:18;5.30;90.50
26254;DHT22;53339;51.378;0.094;2024-03-06T01:34:50;5.20;90.30
26254;DHT22;53339;51.378;0.094;2024-03-06T01:37:21;5.20;90.30
26254;DHT22;53339;51.378;0.094;2024-03-06T01:39:50;5.20;90.30
26254;DHT22;53339;51.378;0.094;2024-03-06T01:42:28;5.20;90.30
26254;DHT22;53339;51.378;0.094;2024-03-06T01:44:59;5.10;90.30
26254;DHT22;53339;51.378;0.094;2024-03-06T01:47:34;5.10;90.20
26254;DHT22;53339;51.378;0.094;2024-03-06T01:50:05;5.00;90.10
26254;DHT22;53339;51.378;0.094;2024-03-06T01:52:41;5.00;90.10
26254;DHT22;53339;51.378;0.094;2024-03-06T01:55:14;4.90;90.10
26254;DHT22;53339;51.378;0.094;2024-03-06T01:57:50;4.80;90.10
26254;DHT22;53339;51.378;0.094;2024-03-06T02:00:22;4.80;90.20
26254;DHT22;53339;51.378;0.094;2024-03-06T02:03:04;4.90;90.20
26254;DHT22;53339;51.378;0.094;2024-03-06T02:05:37;4.80;90.20
26254;DHT22;53339;51.378;0.094;2024-03-06T02:08:09;4.70;90.20
26254;DHT22;53339;51.378;0.094;2024-03-06T02:10:41;4.70;90.20
26254;DHT22;53339;51.378;0.094;2024-03-06T02:13:14;4.70;90.30
26254;DHT22;53339;51.378;0.094;2024-03-06T02:15:48;4.60;90.30
26254;DHT22;53339;51.378;0.094;2024-03-06T02:18:20;4.70;90.30
26254;DHT22;53339;51.378;0.094;2024-03-06T02:20:52;4.60;90.40
26254;DHT22;53339;51.378;0.094;2024-03-06T02:23:24;4.70;90.50
26254;DHT22;53339;51.378;0.094;2024-03-06T02:25:56;4.70;90.60
26254;DHT22;53339;51.378;0.094;2024-03-06T02:28:30;4.70;90.60
26254;DHT22;53339;51.378;0.094;2024-03-06T02:31:09;4.70;90.70
26254;DHT22;53339;51.378;0.094;2024-03-06T02:33:40;4.80;90.80
26254;DHT22;53339;51.378;0.094;2024-03-06T02:36:09;4.80;90.80
26254;DHT22;53339;51.378;0.094;2024-03-06T02:38:40;4.70;90.80
26254;DHT22;53339;51.378;0.094;2024-03-06T02:41:10;4.80;90.90
26254;DHT22;53339;51.378;0.094;2024-03-06T02:43:43;4.90;91.00
26254;DHT22;53339;51.378;0.094;2024-03-06T02:46:14;4.80;90.90
26254;DHT22;53339;51.378;0.094;2024-03-06T02:48:49;4.80;91.00
26254;DHT22;53339;51.378;0.094;2024-03-06T02:51:22;4.90;91.00
26254;DHT22;53339;51.378;0.094;2024-03-06T02:53:58;4.90;91.20
26254;DHT22;53339;51.378;0.094;2024-03-06T02:56:31;5.00;91.20
26254;DHT22;53339;51.378;0.094;2024-03-06T02:59:05;5.00;91.20
26254;DHT22;53339;51.378;0.094;2024-03-06T03:01:39;5.10;91.30
26254;DHT22;53339;51.378;0.094;2024-03-06T03:04:09;5.10;91.30
26254;DHT22;53339;51.378;0.094;2024-03-06T03:06:42;5.10;91.30
26254;DHT22;53339;51.378;0.094;2024-03-06T03:09:14;5.10;91.20
26254;DHT22;53339;51.378;0.094;2024-03-06T03:11:44;5.10;91.20
26254;DHT22;53339;51.378;0.094;2024-03-06T03:14:16;5.10;91.30
26254;DHT22;53339;51.378;0.094;2024-03-06T03:16:46;5.10;91.20
26254;DHT22;53339;51.378;0.094;2024-03-06T03:19:16;5.10;91.20
26254;DHT22;53339;51.378;0.094;2024-03-06T03:21:45;5.10;91.20
26254;DHT22;53339;51.378;0.094;2024-03-06T03:24:18;5.20;91.30
26254;DHT22;53339;51.378;0.094;2024-03-06T03:26:53;5.20;91.20
26254;DHT22;53339;51.378;0.094;2024-03-06T03:29:22;5.10;91.10
26254;DHT22;53339;51.378;0.094;2024-03-06T03:31:53;5.10;91.10
26254;DHT22;53339;51.378;0.094;2024-03-06T03:34:23;5.10;91.20
26254;DHT22;53339;51.378;0.094;2024-03-06T03:36:55;5.10;91.10
26254;DHT22;53339;51.378;0.094;2024-03-06T03:39:24;5.00;91.10
26254;DHT22;53339;51.378;0.094;2024-03-06T03:41:54;5.10;91.10
26254;DHT22;53339;51.378;0.094;2024-03-06T03:44:30;5.10;91.20
26254;DHT22;53339;51.378;0.094;2024-03-06T03:47:00;5.00;91.00
26254;DHT22;53339;51.378;0.094;2024-03-06T03:49:36;4.80;90.90
26254;DHT22;53339;51.378;0.094;2024-03-06T03:52:07;4.70;90.90
26254;DHT22;53339;51.378;0.094;2024-03-06T03:54:40;4.80;91.00
26254;DHT22;53339;51.378;0.094;2024-03-06T03:57:11;4.80;91.10
26254;DHT22;53339;51.378;0.094;2024-03-06T03:59:44;4.80;91.00
26254;DHT22;53339;51.378;0.094;2024-03-06T04:02:15;4.80;91.10
26254;DHT22;53339;51.378;0.094;2024-03-06T04:04:46;4.90;91.30
26254;DHT22;53339;51.378;0.094;2024-03-06T04:07:18;4.90;91.30
26254;DHT22;53339;51.378;0.094;2024-03-06T04:09:52;5.00;91.30
26254;DHT22;53339;51.378;0.094;2024-03-06T04:12:23;5.00;91.40
26254;DHT22;53339;51.378;0.094;2024-03-06T04:14:53;5.10;91.50
26254;DHT22;53339;51.378;0.094;2024-03-06T04:17:23;5.20;91.50
26254;DHT22;53339;51.378;0.094;2024-03-06T04:19:54;5.20;91.50
26254;DHT22;53339;51.378;0.094;2024-03-06T04:22:25;5.30;91.50
26254;DHT22;53339;51.378;0.094;2024-03-06T04:24:59;5.30;91.50
26254;DHT22;53339;51.378;0.094;2024-03-06T04:27:31;5.40;91.50
26254;DHT22;53339;51.378;0.094;2024-03-06T04:30:00;5.40;91.50
26254;DHT22;53339;51.378;0.094;2024-03-06T04:32:31;5.40;91.50
26254;DHT22;53339;51.378;0.094;2024-03-06T04:35:04;5.40;91.50
26254;DHT22;53339;51.378;0.094;2024-03-06T04:37:35;5.40;91.50
26254;DHT22;53339;51.378;0.094;2024-03-06T04:40:05;5.40;91.40
26254;DHT22;53339;51.378;0.094;2024-03-06T04:42:40;5.40;91.40
26254;DHT22;53339;51.378;0.094;2024-03-06T04:45:14;5.50;91.50
26254;DHT22;53339;51.378;0.094;2024-03-06T04:47:47;5.50;91.50
26254;DHT22;53339;51.378;0.094;2024-03-06T04:50:18;5.40;91.30
26254;DHT22;53339;51.378;0.094;2024-03-06T04:52:50;5.40;91.40
26254;DHT22;53339;51.378;0.094;2024-03-06T04:55:22;5.50;91.40
26254;DHT22;53339;51.378;0.094;2024-03-06T04:57:55;5.50;91.40
26254;DHT22;53339;51.378;0.094;2024-03-06T05:00:28;5.40;91.30
26254;DHT22;53339;51.378;0.094;2024-03-06T05:03:00;5.40;91.30
26254;DHT22;53339;51.378;0.094;2024-03-06T05:05:47;5.50;91.40
26254;DHT22;53339;51.378;0.094;2024-03-06T05:08:34;5.60;91.40
26254;DHT22;53339;51.378;0.094;2024-03-06T05:11:21;5.50;91.40
26254;DHT22;53339;51.378;0.094;2024-03-06T05:14:07;5.60;91.40
26254;DHT22;53339;51.378;0.094;2024-03-06T05:16:55;5.70;91.50
26254;DHT22;53339;51.378;0.094;2024-03-06T05:19:43;5.70;91.40
26254;DHT22;53339;51.378;0.094;2024-03-06T05:22:37;5.60;91.30
26254;DHT22;53339;51.378;0.094;2024-03-06T05:25:25;5.70;91.40
26254;DHT22;53339;51.378;0.094;2024-03-06T05:28:13;5.70;91.40
26254;DHT22;53339;51.378;0.094;2024-03-06T05:31:13;5.60;91.30
26254;DHT22;53339;51.378;0.094;2024-03-06T05:34:02;5.60;91.30
26254;DHT22;53339;51.378;0.094;2024-03-06T05:36:51;5.70;91.40
26254;DHT22;53339;51.378;0.094;2024-03-06T05:39:39;5.70;91.40
26254;DHT22;53339;51.378;0.094;2024-03-06T05:42:29;5.70;91.30
26254;DHT22;53339;51.378;0.094;2024-03-06T05:45:21;5.70;91.40
26254;DHT22;53339;51.378;0.094;2024-03-06T05:48:09;5.80;91.50
26254;DHT22;53339;51.378;0.094;2024-03-06T05:50:56;5.70;91.30
26254;DHT22;53339;51.378;0.094;2024-03-06T05:53:43;5.70;91.30
26254;DHT22;53339;51.378;0.094;2024-03-06T05:56:30;5.70;91.40
26254;DHT22;53339;51.378;0.094;2024-03-06T05:59:18;5.80;91.40
26254;DHT22;53339;51.378;0.094;2024-03-06T06:01:48;5.70;91.30
26254;DHT22;53339;51.378;0.094;2024-03-06T06:04:22;5.70;91.30
26254;DHT22;53339;51.378;0.094;2024-03-06T06:06:53;5.80;91.40
26254;DHT22;53339;51.378;0.094;2024-03-06T06:09:27;5.80;91.40
26254;DHT22;53339;51.378;0.094;2024-03-06T06:11:58;5.80;91.20
26254;DHT22;53339;51.378;0.094;2024-03-06T06:14:29;5.80;91.30
26254;DHT22;53339;51.378;0.094;2024-03-06T06:17:02;5.80;91.40
26254;DHT22;53339;51.378;0.094;2024-03-06T06:19:37;5.90;91.40
26254;DHT22;53339;51.378;0.094;2024-03-06T06:22:08;5.80;91.30
26254;DHT22;53339;51.378;0.094;2024-03-06T06:24:41;5.80;91.30
26254;DHT22;53339;51.378;0.094;2024-03-06T06:27:16;5.90;91.40
26254;DHT22;53339;51.378;0.094;2024-03-06T06:29:49;6.00;91.40
26254;DHT22;53339;51.378;0.094;2024-03-06T06:32:24;5.90;91.20
26254;DHT22;53339;51.378;0.094;2024-03-06T06:34:55;5.80;91.20
26254;DHT22;53339;51.378;0.094;2024-03-06T06:37:26;5.90;91.30
26254;DHT22;53339;51.378;0.094;2024-03-06T06:39:56;5.80;91.20
26254;DHT22;53339;51.378;0.094;2024-03-06T06:42:25;5.70;90.90
26254;DHT22;53339;51.378;0.094;2024-03-06T06:44:59;5.40;90.50
26254;DHT22;53339;51.378;0.094;2024-03-06T06:47:31;5.20;90.20
26254;DHT22;53339;51.378;0.094;2024-03-06T06:50:02;5.00;90.20
26254;DHT22;53339;51.378;0.094;2024-03-06T06:52:39;4.90;90.30
26254;DHT22;53339;51.378;0.094;2024-03-06T06:55:09;4.90;90.50
26254;DHT22;53339;51.378;0.094;2024-03-06T06:57:41;5.00;90.70
26254;DHT22;53339;51.378;0.094;2024-03-06T07:00:12;5.00;90.90
26254;DHT22;53339;51.378;0.094;2024-03-06T07:02:45;5.10;91.00
26254;DHT22;53339;51.378;0.094;2024-03-06T07:05:16;5.20;91.10
26254;DHT22;53339;51.378;0.094;2024-03-06T07:07:47;5.20;91.20
26254;DHT22;53339;51.378;0.094;2024-03-06T07:10:20;5.30;91.30
26254;DHT22;53339;51.378;0.094;2024-03-06T07:12:54;5.40;91.40
26254;DHT22;53339;51.378;0.094;2024-03-06T07:15:25;5.40;91.40
26254;DHT22;53339;51.378;0.094;2024-03-06T07:17:56;5.60;91.50
26254;DHT22;53339;51.378;0.094;2024-03-06T07:20:27;5.60;91.50
26254;DHT22;53339;51.378;0.094;2024-03-06T07:23:01;5.60;91.40
26254;DHT22;53339;51.378;0.094;2024-03-06T07:25:32;5.60;91.40
26254;DHT22;53339;51.378;0.094;2024-03-06T07:28:02;5.70;91.40
26254;DHT22;53339;51.378;0.094;2024-03-06T07:30:32;5.70;91.50
26254;DHT22;53339;51.378;0.094;2024-03-06T07:33:07;5.70;91.20
26254;DHT22;53339;51.378;0.094;2024-03-06T07:35:38;5.60;91.20
26254;DHT22;53339;51.378;0.094;2024-03-06T07:38:12;5.60;91.20
26254;DHT22;53339;51.378;0.094;2024-03-06T07:40:46;5.70;91.30
26254;DHT22;53339;51.378;0.094;2024-03-06T07:43:17;5.70;91.20
26254;DHT22;53339;51.378;0.094;2024-03-06T07:45:54;5.70;91.20
26254;DHT22;53339;51.378;0.094;2024-03-06T07:48:27;5.80;91.40
26254;DHT22;53339;51.378;0.094;2024-03-06T07:50:57;5.90;91.50
26254;DHT22;53339;51.378;0.094;2024-03-06T07:53:29;5.90;91.40
26254;DHT22;53339;51.378;0.094;2024-03-06T07:56:00;6.00;91.40
26254;DHT22;53339;51.378;0.094;2024-03-06T07:58:31;6.00;91.50
26254;DHT22;53339;51.378;0.094;2024-03-06T08:01:03;6.10;91.50
26254;DHT22;53339;51.378;0.094;2024-03-06T08:03:40;6.20;91.40
26254;DHT22;53339;51.378;0.094;2024-03-06T08:06:14;6.20;91.40
26254;DHT22;53339;51.378;0.094;2024-03-06T08:08:48;6.30;91.50
26254;DHT22;53339;51.378;0.094;2024-03-06T08:11:20;6.40;91.50
26254;DHT22;53339;51.378;0.094;2024-03-06T08:13:58;6.40;91.30
26254;DHT22;53339;51.378;0.094;2024-03-06T08:16:30;6.40;91.40
26254;DHT22;53339;51.378;0.094;2024-03-06T08:19:06;6.60;91.60
26254;DHT22;53339;51.378;0.094;2024-03-06T08:21:38;6.70;91.50
26254;DHT22;53339;51.378;0.094;2024-03-06T08:24:09;6.70;91.30
26254;DHT22;53339;51.378;0.094;2024-03-06T08:26:41;6.70;91.40
26254;DHT22;53339;51.378;0.094;2024-03-06T08:29:12;6.80;91.50
26254;DHT22;53339;51.378;0.094;2024-03-06T08:31:43;6.90;91.50
26254;DHT22;53339;51.378;0.094;2024-03-06T08:34:13;6.90;91.20
26254;DHT22;53339;51.378;0.094;2024-03-06T08:36:45;6.80;91.20
26254;DHT22;53339;51.378;0.094;2024-03-06T08:39:19;6.90;91.30
26254;DHT22;53339;51.378;0.094;2024-03-06T08:41:49;7.00;91.40
26254;DHT22;53339;51.378;0.094;2024-03-06T08:44:22;7.00;91.10
26254;DHT22;53339;51.378;0.094;2024-03-06T08:46:54;7.10;91.20
26254;DHT22;53339;51.378;0.094;2024-03-06T08:49:25;7.10;91.40
26254;DHT22;53339;51.378;0.094;2024-03-06T08:51:56;7.30;91.30
26254;DHT22;53339;51.378;0.094;2024-03-06T08:54:30;7.20;91.00
26254;DHT22;53339;51.378;0.094;2024-03-06T08:57:04;7.20;91.00
26254;DHT22;53339;51.378;0.094;2024-03-06T08:59:38;7.30;91.30
26254;DHT22;53339;51.378;0.094;2024-03-06T09:02:17;7.40;91.30
26254;DHT22;53339;51.378;0.094;2024-03-06T09:04:49;7.40;90.90
26254;DHT22;53339;51.378;0.094;2024-03-06T09:07:24;7.40;91.00
26254;DHT22;53339;51.378;0.094;2024-03-06T09:09:54;7.50;91.30
26254;DHT22;53339;51.378;0.094;2024-03-06T09:12:25;7.70;91.20
26254;DHT22;53339;51.378;0.094;2024-03-06T09:15:01;7.70;90.80
26254;DHT22;53339;51.378;0.094;2024-03-06T09:17:35;7.70;90.90
26254;DHT22;53339;51.378;0.094;2024-03-06T09:20:05;7.80;91.10
26254;DHT22;53339;51.378;0.094;2024-03-06T09:22:43;7.90;91.10
26254;DHT22;53339;51.378;0.094;2024-03-06T09:25:13;7.90;90.70
26254;DHT22;53339;51.378;0.094;2024-03-06T09:27:50;7.90;90.70
26254;DHT22;53339;51.378;0.094;2024-03-06T09:30:21;8.00;90.90
26254;DHT22;53339;51.378;0.094;2024-03-06T09:32:53;8.00;90.80
26254;DHT22;53339;51.378;0.094;2024-03-06T09:35:26;7.80;90.20
26254;DHT22;53339;51.378;0.094;2024-03-06T09:37:56;7.60;90.20
26254;DHT22;53339;51.378;0.094;2024-03-06T09:40:31;7.50;90.40
26254;DHT22;53339;51.378;0.094;2024-03-06T09:43:04;7.60;90.60
26254;DHT22;53339;51.378;0.094;2024-03-06T09:45:39;7.60;90.40
26254;DHT22;53339;51.378;0.094;2024-03-06T09:48:12;7.50;90.60
26254;DHT22;53339;51.378;0.094;2024-03-06T09:50:43;7.50;90.70
26254;DHT22;53339;51.378;0.094;2024-03-06T09:53:16;7.60;90.80
26254;DHT22;53339;51.378;0.094;2024-03-06T09:55:47;7.50;90.50
26254;DHT22;53339;51.378;0.094;2024-03-06T09:58:18;7.40;90.50
26254;DHT22;53339;51.378;0.094;2024-03-06T10:00:53;7.50;90.70
26254;DHT22;53339;51.378;0.094;2024-03-06T10:03:26;7.50;90.80
26254;DHT22;53339;51.378;0.094;2024-03-06T10:05:57;7.50;90.70
26254;DHT22;53339;51.378;0.094;2024-03-06T10:08:30;7.50;90.70
26254;DHT22;53339;51.378;0.094;2024-03-06T10:11:01;7.60;90.90
26254;DHT22;53339;51.378;0.094;2024-03-06T10:13:35;7.70;91.00
26254;DHT22;53339;51.378;0.094;2024-03-06T10:16:07;7.70;90.80
26254;DHT22;53339;51.378;0.094;2024-03-06T10:18:42;7.70;90.80
26254;DHT22;53339;51.378;0.094;2024-03-06T10:21:14;7.80;90.90
26254;DHT22;53339;51.378;0.094;2024-03-06T10:23:47;7.90;91.00
26254;DHT22;53339;51.378;0.094;2024-03-06T10:26:18;7.90;90.70
26254;DHT22;53339;51.378;0.094;2024-03-06T10:28:50;7.90;90.70
26254;DHT22;53339;51.378;0.094;2024-03-06T10:31:31;8.00;90.90
26254;DHT22;53339;51.378;0.094;2024-03-06T10:34:02;8.20;91.00
26254;DHT22;53339;51.378;0.094;2024-03-06T10:36:34;8.20;90.50
26254;DHT22;53339;51.378;0.094;2024-03-06T10:39:07;8.20;90.60
26254;DHT22;53339;51.378;0.094;2024-03-06T10:41:42;8.20;90.70
26254;DHT22;53339;51.378;0.094;2024-03-06T10:44:24;8.30;90.70
26254;DHT22;53339;51.378;0.094;2024-03-06T10:46:58;8.30;90.20
26254;DHT22;53339;51.378;0.094;2024-03-06T10:49:30;8.20;90.30
26254;DHT22;53339;51.378;0.094;2024-03-06T10:52:03;8.30;90.50
26254;DHT22;53339;51.378;0.094;2024-03-06T10:54:36;8.40;90.60
26254;DHT22;53339;51.378;0.094;2024-03-06T10:57:12;8.40;90.30
26254;DHT22;53339;51.378;0.094;2024-03-06T10:59:48;8.40;90.40
26254;DHT22;53339;51.378;0.094;2024-03-06T11:02:22;8.50;90.60
26254;DHT22;53339;51.378;0.094;2024-03-06T11:04:54;8.60;90.60
26254;DHT22;53339;51.378;0.094;2024-03-06T11:07:26;8.60;89.90
26254;DHT22;53339;51.378;0.094;2024-03-06T11:09:59;8.60;90.00
26254;DHT22;53339;51.378;0.094;2024-03-06T11:12:37;8.60;90.30
26254;DHT22;53339;51.378;0.094;2024-03-06T11:15:16;8.70;90.20
26254;DHT22;53339;51.378;0.094;2024-03-06T11:17:47;8.70;89.60
26254;DHT22;53339;51.378;0.094;2024-03-06T11:20:20;8.80;89.90
26254;DHT22;53339;51.378;0.094;2024-03-06T11:28:38;9.20;89.50
26254;DHT22;53339;51.378;0.094;2024-03-06T11:31:10;9.20;89.90
26254;DHT22;53339;51.378;0.094;2024-03-06T11:33:47;9.40;90.10
26254;DHT22;53339;51.378;0.094;2024-03-06T11:36:22;9.40;89.60
26254;DHT22;53339;51.378;0.094;2024-03-06T11:38:59;9.30;89.10
26254;DHT22;53339;51.378;0.094;2024-03-06T11:41:49;9.30;89.40
26254;DHT22;53339;51.378;0.094;2024-03-06T11:44:24;9.30;89.70
26254;DHT22;53339;51.378;0.094;2024-03-06T11:47:07;9.40;89.30
26254;DHT22;53339;51.378;0.094;2024-03-06T11:49:39;9.30;89.00
26254;DHT22;53339;51.378;0.094;2024-03-06T11:52:10;9.30;89.30
26254;DHT22;53339;51.378;0.094;2024-03-06T11:54:41;9.30;89.60
26254;DHT22;53339;51.378;0.094;2024-03-06T11:57:12;9.40;89.30
26254;DHT22;53339;51.378;0.094;2024-03-06T11:59:49;9.40;88.90
26254;DHT22;53339;51.378;0.094;2024-03-06T12:02:20;9.40;89.20
26254;DHT22;53339;51.378;0.094;2024-03-06T12:04:54;9.60;89.50
26254;DHT22;53339;51.378;0.094;2024-03-06T12:07:33;9.70;89.00
26254;DHT22;53339;51.378;0.094;2024-03-06T12:10:04;9.60;88.50
26254;DHT22;53339;51.378;0.094;2024-03-06T12:12:37;9.60;88.80
26254;DHT22;53339;51.378;0.094;2024-03-06T12:15:06;9.70;89.10
26254;DHT22;53339;51.378;0.094;2024-03-06T12:17:47;9.60;88.40
26254;DHT22;53339;51.378;0.094;2024-03-06T12:20:24;9.50;87.90
26254;DHT22;53339;51.378;0.094;2024-03-06T12:22:58;9.50;88.30
26254;DHT22;53339;51.378;0.094;2024-03-06T12:25:28;9.60;88.60
26254;DHT22;53339;51.378;0.094;2024-03-06T12:28:07;9.70;87.90
26254;DHT22;53339;51.378;0.094;2024-03-06T12:30:47;9.70;87.80
26254;DHT22;53339;51.378;0.094;2024-03-06T12:33:17;9.80;88.30
26254;DHT22;53339;51.378;0.094;2024-03-06T12:36:07;10.00;88.30
26254;DHT22;53339;51.378;0.094;2024-03-06T12:38:43;10.00;86.80
26254;DHT22;53339;51.378;0.094;2024-03-06T12:41:14;9.90;87.00
26254;DHT22;53339;51.378;0.094;2024-03-06T12:43:44;9.90;87.80
26254;DHT22;53339;51.378;0.094;2024-03-06T12:46:15;10.00;88.20
26254;DHT22;53339;51.378;0.094;2024-03-06T12:48:50;10.10;86.70
26254;DHT22;53339;51.378;0.094;2024-03-06T12:51:21;10.20;87.10
26254;DHT22;53339;51.378;0.094;2024-03-06T12:53:55;10.40;87.30
26254;DHT22;53339;51.378;0.094;2024-03-06T12:56:29;10.60;87.10
26254;DHT22;53339;51.378;0.094;2024-03-06T12:59:00;10.70;85.40
26254;DHT22;53339;51.378;0.094;2024-03-06T13:01:31;10.70;86.10
26254;DHT22;53339;51.378;0.094;2024-03-06T13:04:02;10.90;86.50
26254;DHT22;53339;51.378;0.094;2024-03-06T13:06:40;11.00;86.70
26254;DHT22;53339;51.378;0.094;2024-03-06T13:09:12;11.10;84.50
26254;DHT22;53339;51.378;0.094;2024-03-06T13:11:45;11.10;85.30
26254;DHT22;53339;51.378;0.094;2024-03-06T13:14:18;11.10;86.00
26254;DHT22;53339;51.378;0.094;2024-03-06T13:16:50;11.20;86.30
26254;DHT22;53339;51.378;0.094;2024-03-06T13:19:21;11.10;83.50
26254;DHT22;53339;51.378;0.094;2024-03-06T13:21:52;11.00;84.50
26254;DHT22;53339;51.378;0.094;2024-03-06T13:24:21;11.00;85.40
26254;DHT22;53339;51.378;0.094;2024-03-06T13:26:56;11.00;85.50
26254;DHT22;53339;51.378;0.094;2024-03-06T13:29:27;10.90;83.60
26254;DHT22;53339;51.378;0.094;2024-03-06T13:32:01;10.60;83.20
26254;DHT22;53339;51.378;0.094;2024-03-06T13:34:32;10.20;84.20
26254;DHT22;53339;51.378;0.094;2024-03-06T13:37:02;10.10;85.30
26254;DHT22;53339;51.378;0.094;2024-03-06T13:39:33;10.00;84.90
26254;DHT22;53339;51.378;0.094;2024-03-06T13:42:04;9.90;84.40
26254;DHT22;53339;51.378;0.094;2024-03-06T13:44:36;9.90;85.20
26254;DHT22;53339;51.378;0.094;2024-03-06T13:47:14;10.20;86.70
26254;DHT22;53339;51.378;0.094;2024-03-06T13:49:50;10.50;85.60
26254;DHT22;53339;51.378;0.094;2024-03-06T13:52:21;10.60;84.40
26254;DHT22;53339;51.378;0.094;2024-03-06T13:54:55;10.50;84.20
26254;DHT22;53339;51.378;0.094;2024-03-06T13:57:30;10.50;85.30
26254;DHT22;53339;51.378;0.094;2024-03-06T14:00:05;10.50;84.60
26254;DHT22;53339;51.378;0.094;2024-03-06T14:02:41;10.30;83.70
26254;DHT22;53339;51.378;0.094;2024-03-06T14:05:12;10.10;84.20
26254;DHT22;53339;51.378;0.094;2024-03-06T14:07:45;10.10;85.40
26254;DHT22;53339;51.378;0.094;2024-03-06T14:10:16;10.10;84.90
26254;DHT22;53339;51.378;0.094;2024-03-06T14:12:54;10.10;84.50
26254;DHT22;53339;51.378;0.094;2024-03-06T14:15:27;10.00;84.60
26254;DHT22;53339;51.378;0.094;2024-03-06T14:18:01;9.90;85.40
26254;DHT22;53339;51.378;0.094;2024-03-06T14:20:32;9.90;84.70
26254;DHT22;53339;51.378;0.094;2024-03-06T14:23:03;9.80;83.20
26254;DHT22;53339;51.378;0.094;2024-03-06T14:25:36;9.60;84.00
26254;DHT22;53339;51.378;0.094;2024-03-06T14:28:09;9.60;85.20
26254;DHT22;53339;51.378;0.094;2024-03-06T14:30:38;9.70;84.90
26254;DHT22;53339;51.378;0.094;2024-03-06T14:33:10;9.90;84.50
26254;DHT22;53339;51.378;0.094;2024-03-06T14:35:41;9.90;84.10
26254;DHT22;53339;51.378;0.094;2024-03-06T14:38:09;9.90;85.00
26254;DHT22;53339;51.378;0.094;2024-03-06T14:40:43;10.10;83.90
26254;DHT22;53339;51.378;0.094;2024-03-06T14:43:15;10.10;82.90
26254;DHT22;53339;51.378;0.094;2024-03-06T14:45:46;10.00;83.40
26254;DHT22;53339;51.378;0.094;2024-03-06T14:48:19;9.90;84.60
26254;DHT22;53339;51.378;0.094;2024-03-06T14:50:56;9.90;84.10
26254;DHT22;53339;51.378;0.094;2024-03-06T14:53:26;9.90;83.90
26254;DHT22;53339;51.378;0.094;2024-03-06T14:55:57;9.90;83.80
26254;DHT22;53339;51.378;0.094;2024-03-06T14:58:28;9.90;85.10
26254;DHT22;53339;51.378;0.094;2024-03-06T15:00:57;10.50;84.90
26254;DHT22;53339;51.378;0.094;2024-03-06T15:03:29;10.90;83.00
26254;DHT22;53339;51.378;0.094;2024-03-06T15:06:00;10.80;82.20
26254;DHT22;53339;51.378;0.094;2024-03-06T15:08:32;10.70;83.90
26254;DHT22;53339;51.378;0.094;2024-03-06T15:11:01;10.70;83.20
26254;DHT22;53339;51.378;0.094;2024-03-06T15:13:32;10.70;82.80
26254;DHT22;53339;51.378;0.094;2024-03-06T15:16:04;10.50;82.40
26254;DHT22;53339;51.378;0.094;2024-03-06T15:18:38;10.30;84.10
26254;DHT22;53339;51.378;0.094;2024-03-06T15:21:08;10.40;83.90
26254;DHT22;53339;51.378;0.094;2024-03-06T15:23:39;10.60;83.60
26254;DHT22;53339;51.378;0.094;2024-03-06T15:26:09;11.40;84.30
26254;DHT22;53339;51.378;0.094;2024-03-06T15:28:41;12.70;85.90
26254;DHT22;53339;51.378;0.094;2024-03-06T15:31:16;13.20;81.90
26254;DHT22;53339;51.378;0.094;2024-03-06T15:33:47;13.10;79.30
26254;DHT22;53339;51.378;0.094;2024-03-06T15:36:17;12.70;79.40
26254;DHT22;53339;51.378;0.094;2024-03-06T15:38:55;12.60;83.30
26254;DHT22;53339;51.378;0.094;2024-03-06T15:41:33;13.00;82.00
26254;DHT22;53339;51.378;0.094;2024-03-06T15:44:03;13.70;79.70
26254;DHT22;53339;51.378;0.094;2024-03-06T15:46:36;13.70;80.10
26254;DHT22;53339;51.378;0.094;2024-03-06T15:49:19;14.20;83.00
26254;DHT22;53339;51.378;0.094;2024-03-06T15:51:55;14.90;80.30
26254;DHT22;53339;51.378;0.094;2024-03-06T15:54:26;15.60;78.90
26254;DHT22;53339;51.378;0.094;2024-03-06T15:56:55;16.10;80.80
26254;DHT22;53339;51.378;0.094;2024-03-06T15:59:27;16.70;82.40
26254;DHT22;53339;51.378;0.094;2024-03-06T16:02:00;17.30;77.90
26254;DHT22;53339;51.378;0.094;2024-03-06T16:04:32;17.40;78.00
26254;DHT22;53339;51.378;0.094;2024-03-06T16:07:02;17.40;79.10
26254;DHT22;53339;51.378;0.094;2024-03-06T16:09:29;17.40;81.40
26254;DHT22;53339;51.378;0.094;2024-03-06T16:11:57;17.20;78.20
26254;DHT22;53339;51.378;0.094;2024-03-06T16:14:25;16.80;77.50
26254;DHT22;53339;51.378;0.094;2024-03-06T16:16:52;15.80;75.60
26254;DHT22;53339;51.378;0.094;2024-03-06T16:19:22;15.00;79.10
26254;DHT22;53339;51.378;0.094;2024-03-06T16:21:54;14.30;77.20
26254;DHT22;53339;51.378;0.094;2024-03-06T16:24:22;13.70;77.70
26254;DHT22;53339;51.378;0.094;2024-03-06T16:26:50;12.90;78.60